createdAt,value
2019-03-24T00:00:30.053Z,49.77
2019-03-24T00:02:59.350Z,53.60
2019-03-24T00:05:28.634Z,49.90
2019-03-24T00:07:57.925Z,47.47
2019-03-24T00:10:27.206Z,50.17
2019-03-24T00:12:56.610Z,45.67
2019-03-24T00:15:26.777Z,51.70
2019-03-24T00:17:56.279Z,53.87
2019-03-24T00:20:25.537Z,52.23
2019-03-24T00:22:54.837Z,51.90
2019-03-24T00:25:24.106Z,52.17
2019-03-24T00:27:54.232Z,54.03
2019-03-24T00:30:23.514Z,48.80
2019-03-24T00:32:53.168Z,52.90
2019-03-24T00:35:22.508Z,56.17
2019-03-24T00:37:51.810Z,54.20
2019-03-24T00:40:21.098Z,48.83
2019-03-24T00:42:50.394Z,50.90
2019-03-24T00:45:19.661Z,54.33
2019-03-24T00:47:49.566Z,50.37
2019-03-24T00:50:18.936Z,47.97
2019-03-24T00:52:48.226Z,54.23
2019-03-24T00:55:17.530Z,52.37
2019-03-24T00:57:46.809Z,53.33
2019-03-24T01:00:16.748Z,50.50
2019-03-24T01:02:46.030Z,55.83
2019-03-24T01:05:15.398Z,48.23
2019-03-24T01:07:44.749Z,53.47
2019-03-24T01:10:14.277Z,55.97
2019-03-24T01:12:43.557Z,51.87
2019-03-24T01:15:12.972Z,53.23
2019-03-24T01:17:42.273Z,55.33
2019-03-24T01:20:11.812Z,54.27
2019-03-24T01:22:42.058Z,54.50
2019-03-24T01:25:11.438Z,52.00
2019-03-24T01:27:40.724Z,51.00
2019-03-24T01:30:10.555Z,47.27
2019-03-24T01:32:39.835Z,51.83
2019-03-24T01:35:09.275Z,54.80
2019-03-24T01:37:38.559Z,54.33
2019-03-24T01:40:08.303Z,48.03
2019-03-24T01:42:37.579Z,51.00
2019-03-24T01:45:09.795Z,52.97
2019-03-24T01:47:39.102Z,51.47
2019-03-24T01:50:10.013Z,48.30
2019-03-24T01:52:39.294Z,48.97
2019-03-24T01:55:08.963Z,50.33
2019-03-24T01:57:38.247Z,49.57
2019-03-24T02:00:08.882Z,55.00
2019-03-24T02:02:38.192Z,54.17
2019-03-24T02:05:08.241Z,52.87
2019-03-24T02:07:37.550Z,54.63
2019-03-24T02:10:07.668Z,55.20
2019-03-24T02:12:37.921Z,52.97
2019-03-24T02:15:08.308Z,58.87
2019-03-24T02:17:37.615Z,56.63
2019-03-24T02:20:07.234Z,58.17
2019-03-24T02:22:36.526Z,53.30
2019-03-24T02:25:06.147Z,55.57
2019-03-24T02:27:35.593Z,57.73
2019-03-24T02:30:12.089Z,56.37
2019-03-24T02:32:41.390Z,60.07
2019-03-24T02:35:10.851Z,53.43
2019-03-24T02:37:40.143Z,57.57
2019-03-24T02:40:09.763Z,57.00
2019-03-24T02:42:39.107Z,58.13
2019-03-24T02:45:09.030Z,59.00
2019-03-24T02:47:38.386Z,54.20
2019-03-24T02:50:08.219Z,56.77
2019-03-24T02:52:37.494Z,61.10
2019-03-24T02:55:07.631Z,51.03
2019-03-24T02:57:37.900Z,61.13
2019-03-24T03:00:09.730Z,58.03
2019-03-24T03:02:39.012Z,60.77
2019-03-24T03:05:08.755Z,56.40
2019-03-24T03:07:39.103Z,60.43
2019-03-24T03:10:09.349Z,59.33
2019-03-24T03:12:38.691Z,61.53
2019-03-24T03:15:09.797Z,61.13
2019-03-24T03:17:39.133Z,58.37
2019-03-24T03:20:08.986Z,59.83
2019-03-24T03:22:38.293Z,60.13
2019-03-24T03:25:08.375Z,57.73
2019-03-24T03:27:37.720Z,64.47
2019-03-24T03:30:08.263Z,66.57
2019-03-24T03:32:37.678Z,67.13
2019-03-24T03:35:08.594Z,61.40
2019-03-24T03:37:37.902Z,62.33
2019-03-24T03:40:08.016Z,68.77
2019-03-24T03:42:39.288Z,60.60
2019-03-24T03:45:09.932Z,70.37
2019-03-24T03:47:39.764Z,71.43
2019-03-24T03:50:09.376Z,72.43
2019-03-24T03:52:38.655Z,66.47
2019-03-24T03:55:08.101Z,68.33
2019-03-24T03:57:37.377Z,69.10
2019-03-24T04:00:07.763Z,62.23
2019-03-24T04:02:37.070Z,64.47
2019-03-24T04:05:07.715Z,69.50
2019-03-24T04:07:37.061Z,73.43
2019-03-24T04:10:07.103Z,66.93
2019-03-24T04:12:36.413Z,68.53
2019-03-24T04:15:07.306Z,65.30
2019-03-24T04:17:36.597Z,68.27
2019-03-24T04:20:06.225Z,69.70
2019-03-24T04:22:35.604Z,71.07
2019-03-24T04:25:09.058Z,68.67
2019-03-24T04:27:38.371Z,65.93
2019-03-24T04:30:09.351Z,66.90
2019-03-24T04:32:38.650Z,73.57
2019-03-24T04:35:08.467Z,67.10
2019-03-24T04:37:40.535Z,74.23
2019-03-24T04:40:09.951Z,73.70
2019-03-24T04:42:39.266Z,69.97
2019-03-24T04:45:09.082Z,73.13
2019-03-24T04:47:38.406Z,71.30
2019-03-24T04:50:08.320Z,76.00
2019-03-24T04:52:37.617Z,75.27
2019-03-24T04:55:07.138Z,73.83
2019-03-24T04:57:36.983Z,72.27
2019-03-24T05:00:09.747Z,69.73
2019-03-24T05:02:39.132Z,71.40
2019-03-24T05:05:08.846Z,76.00
2019-03-24T05:07:39.187Z,84.03
2019-03-24T05:10:20.003Z,74.50
2019-03-24T05:12:49.286Z,76.47
2019-03-24T05:15:19.571Z,74.37
2019-03-24T05:17:48.846Z,73.87
2019-03-24T05:20:18.156Z,75.80
2019-03-24T05:22:48.170Z,79.37
2019-03-24T05:25:17.472Z,72.97
2019-03-24T05:27:46.750Z,79.07
2019-03-24T05:30:16.127Z,78.83
2019-03-24T05:32:45.414Z,79.00
2019-03-24T05:35:14.717Z,71.50
2019-03-24T05:37:44.008Z,84.17
2019-03-24T05:40:13.451Z,79.73
2019-03-24T05:42:42.718Z,73.73
2019-03-24T05:45:12.014Z,78.57
2019-03-24T05:47:41.298Z,79.63
2019-03-24T05:50:11.045Z,78.20
2019-03-24T05:52:40.321Z,77.50
2019-03-24T05:55:09.857Z,70.80
2019-03-24T05:57:39.134Z,74.77
2019-03-24T06:00:09.547Z,79.60
2019-03-24T06:02:38.826Z,68.87
2019-03-24T06:05:08.313Z,78.57
2019-03-24T06:07:37.590Z,75.00
2019-03-24T06:10:07.252Z,69.87
2019-03-24T06:12:36.526Z,66.57
2019-03-24T06:15:08.412Z,66.20
2019-03-24T06:17:47.495Z,71.07
2019-03-24T06:20:09.221Z,67.93
2019-03-24T06:22:38.502Z,71.73
2019-03-24T06:25:09.021Z,72.33
2019-03-24T06:27:38.391Z,72.00
2019-03-24T06:30:08.510Z,69.53
2019-03-24T06:32:37.818Z,70.77
2019-03-24T06:35:07.235Z,69.93
2019-03-24T06:37:37.506Z,72.03
2019-03-24T06:40:07.035Z,65.20
2019-03-24T06:42:36.348Z,63.93
2019-03-24T06:45:06.768Z,65.37
2019-03-24T06:47:36.338Z,65.70
2019-03-24T06:50:10.598Z,62.67
2019-03-24T06:52:44.297Z,63.57
2019-03-24T06:55:13.570Z,64.97
2019-03-24T06:57:43.044Z,60.40
2019-03-24T07:00:16.714Z,64.83
2019-03-24T07:02:50.432Z,58.37
2019-03-24T07:05:20.706Z,60.70
2019-03-24T07:07:49.988Z,58.00
2019-03-24T07:10:19.284Z,56.03
2019-03-24T07:12:48.610Z,63.37
2019-03-24T07:15:18.036Z,60.27
2019-03-24T07:17:48.292Z,60.73
2019-03-24T07:20:17.675Z,55.97
2019-03-24T07:22:46.960Z,61.00
2019-03-24T07:25:16.267Z,59.60
2019-03-24T07:27:45.551Z,55.17
2019-03-24T07:30:14.999Z,56.27
2019-03-24T07:32:44.283Z,59.50
2019-03-24T07:35:13.638Z,53.70
2019-03-24T07:40:27.066Z,50.13
2019-03-24T07:42:56.380Z,52.80
2019-03-24T07:45:25.688Z,56.13
2019-03-24T07:47:54.970Z,52.70
2019-03-24T07:50:24.382Z,56.00
2019-03-24T07:52:53.663Z,50.93
2019-03-24T07:55:22.949Z,52.70
2019-03-24T07:57:52.254Z,54.40
2019-03-24T08:00:32.497Z,56.20
2019-03-24T08:03:01.779Z,49.63
2019-03-24T08:05:31.082Z,48.17
2019-03-24T08:08:00.361Z,49.87
2019-03-24T08:10:29.671Z,47.40
2019-03-24T08:12:58.959Z,49.07
2019-03-24T08:15:28.273Z,47.67
2019-03-24T08:17:57.561Z,46.53
2019-03-24T08:20:27.528Z,46.53
2019-03-24T08:22:56.806Z,45.47
2019-03-24T08:25:26.110Z,42.93
2019-03-24T08:27:55.477Z,43.07
2019-03-24T08:30:32.912Z,43.33
2019-03-24T08:33:02.259Z,40.57
2019-03-24T08:35:31.570Z,41.47
2019-03-24T08:38:00.852Z,41.83
2019-03-24T08:40:30.161Z,46.87
2019-03-24T08:42:59.447Z,43.23
2019-03-24T08:45:29.994Z,42.17
2019-03-24T08:47:59.351Z,40.40
2019-03-24T08:50:28.810Z,44.77
2019-03-24T08:52:58.175Z,43.97
2019-03-24T08:55:27.618Z,42.63
2019-03-24T08:57:56.902Z,43.63
2019-03-24T09:00:30.461Z,43.67
2019-03-24T09:02:57.202Z,44.00
2019-03-24T09:05:26.490Z,45.40
2019-03-24T09:07:55.802Z,46.57
2019-03-24T09:10:25.083Z,45.10
2019-03-24T09:12:54.383Z,47.13
2019-03-24T09:15:23.673Z,43.57
2019-03-24T09:17:52.983Z,45.23
2019-03-24T09:20:22.257Z,43.67
2019-03-24T09:22:51.606Z,45.30
2019-03-24T09:25:30.210Z,48.90
2019-03-24T09:27:59.831Z,44.03
2019-03-24T09:30:30.757Z,45.60
2019-03-24T09:33:00.142Z,47.90
2019-03-24T09:35:29.481Z,48.27
2019-03-24T09:37:58.868Z,43.47
2019-03-24T09:40:29.718Z,48.87
2019-03-24T09:43:00.292Z,47.73
2019-03-24T09:45:30.713Z,48.20
2019-03-24T09:48:00.258Z,45.43
2019-03-24T09:50:29.802Z,47.03
2019-03-24T09:55:34.773Z,45.00
2019-03-24T09:58:05.046Z,45.27
2019-03-24T10:00:34.394Z,44.83
2019-03-24T10:03:03.786Z,45.57
2019-03-24T10:05:33.074Z,45.73
2019-03-24T10:08:03.057Z,46.63
2019-03-24T10:10:33.402Z,51.17
2019-03-24T10:13:02.784Z,42.77
2019-03-24T10:15:32.095Z,44.67
2019-03-24T10:18:01.552Z,50.10
2019-03-24T10:20:31.110Z,49.03
2019-03-24T10:23:00.625Z,42.70
2019-03-24T10:25:30.101Z,45.53
2019-03-24T10:27:59.714Z,44.47
2019-03-24T10:30:29.361Z,45.13
2019-03-24T10:32:58.830Z,47.97
2019-03-24T10:35:30.305Z,43.83
2019-03-24T10:38:00.522Z,43.47
2019-03-24T10:40:37.750Z,42.90
2019-03-24T10:43:08.761Z,46.87
2019-03-24T10:45:40.009Z,45.97
2019-03-24T10:48:09.749Z,48.03
2019-03-24T10:50:39.332Z,51.83
2019-03-24T10:53:12.715Z,47.57
2019-03-24T10:55:42.051Z,48.83
2019-03-24T10:58:12.473Z,47.47
2019-03-24T11:00:43.295Z,48.53
2019-03-24T11:03:12.734Z,49.50
2019-03-24T11:05:42.090Z,44.90
2019-03-24T11:08:11.518Z,48.40
2019-03-24T11:10:40.986Z,46.57
2019-03-24T11:13:10.441Z,48.93
2019-03-24T11:15:39.726Z,52.70
2019-03-24T11:18:09.043Z,42.23
2019-03-24T11:20:38.341Z,44.90
2019-03-24T11:23:07.710Z,46.63
2019-03-24T11:25:36.999Z,45.97
2019-03-24T11:28:06.301Z,43.40
2019-03-24T11:30:35.595Z,48.93
2019-03-24T11:33:12.569Z,45.43
2019-03-24T11:35:43.682Z,47.23
2019-03-24T11:38:18.816Z,44.63
2019-03-24T11:40:49.959Z,46.97
2019-03-24T11:43:19.536Z,45.53
2019-03-24T11:45:48.963Z,43.03
2019-03-24T11:48:26.680Z,45.73
2019-03-24T11:50:56.234Z,45.90
2019-03-24T11:53:27.993Z,45.57
2019-03-24T11:55:57.606Z,42.77
2019-03-24T11:58:28.880Z,41.57
2019-03-24T12:00:59.856Z,42.10
2019-03-24T12:03:32.758Z,41.37
2019-03-24T12:06:02.196Z,45.57
2019-03-24T12:08:31.540Z,41.20
2019-03-24T12:11:00.878Z,43.87
2019-03-24T12:13:30.202Z,47.17
2019-03-24T12:15:59.495Z,41.93
2019-03-24T12:18:28.782Z,43.80
2019-03-24T12:20:58.102Z,42.87
2019-03-24T12:23:27.387Z,43.80
2019-03-24T12:25:56.694Z,42.93
2019-03-24T12:28:25.982Z,40.63
2019-03-24T12:30:55.771Z,44.07
2019-03-24T12:33:25.104Z,41.17
2019-03-24T12:35:54.407Z,42.10
2019-03-24T12:38:23.700Z,42.63
2019-03-24T12:40:53.018Z,40.90
2019-03-24T12:43:22.304Z,42.13
2019-03-24T12:45:51.610Z,42.67
2019-03-24T12:48:20.991Z,39.17
2019-03-24T12:50:51.151Z,45.47
2019-03-24T12:53:20.441Z,43.60
2019-03-24T12:55:49.754Z,45.07
2019-03-24T12:58:20.165Z,41.80
2019-03-24T13:00:49.484Z,39.17
2019-03-24T13:03:19.002Z,45.63
2019-03-24T13:05:48.297Z,42.23
2019-03-24T13:08:17.755Z,41.47
2019-03-24T13:10:47.482Z,42.93
2019-03-24T13:13:16.859Z,42.10
2019-03-24T13:15:46.536Z,37.53
2019-03-24T13:18:15.951Z,38.33
2019-03-24T13:20:45.297Z,37.40
2019-03-24T13:23:14.650Z,39.27
2019-03-24T13:25:43.968Z,38.57
2019-03-24T13:28:13.244Z,39.50
2019-03-24T13:30:42.556Z,41.17
2019-03-24T13:33:11.843Z,38.40
2019-03-24T13:35:41.230Z,40.10
2019-03-24T13:38:10.519Z,36.27
2019-03-24T13:40:39.943Z,34.87
2019-03-24T13:43:09.230Z,34.83
2019-03-24T13:45:38.536Z,41.43
2019-03-24T13:48:07.822Z,36.87
2019-03-24T13:50:37.130Z,37.30
2019-03-24T13:53:06.438Z,38.13
2019-03-24T13:55:35.742Z,35.80
2019-03-24T13:58:06.115Z,40.17
2019-03-24T14:00:35.410Z,38.80
2019-03-24T14:03:04.793Z,34.93
2019-03-24T14:05:34.079Z,41.70
2019-03-24T14:08:03.390Z,37.57
2019-03-24T14:10:32.706Z,35.70
2019-03-24T14:13:01.989Z,36.53
2019-03-24T14:15:32.187Z,35.47
2019-03-24T14:18:01.528Z,37.90
2019-03-24T14:20:42.454Z,34.50
2019-03-24T14:23:02.017Z,36.47
2019-03-24T14:25:31.307Z,36.63
2019-03-24T14:28:00.621Z,40.17
2019-03-24T14:30:42.994Z,33.67
2019-03-24T14:33:15.150Z,34.10
2019-03-24T14:35:44.498Z,40.30
2019-03-24T14:38:13.817Z,32.20
2019-03-24T14:40:43.102Z,35.13
2019-03-24T14:43:12.485Z,37.60
2019-03-24T14:45:41.802Z,35.87
2019-03-24T14:48:13.592Z,36.17
2019-03-24T14:50:53.613Z,35.60
2019-03-24T14:53:13.887Z,36.87
2019-03-24T14:55:43.170Z,33.03
2019-03-24T14:58:12.485Z,32.07
2019-03-24T15:00:43.005Z,29.13
2019-03-24T15:03:12.391Z,33.40
2019-03-24T15:05:41.774Z,31.17
2019-03-24T15:08:11.324Z,28.80
2019-03-24T15:10:40.708Z,33.27
2019-03-24T15:13:10.086Z,30.43
2019-03-24T15:15:39.439Z,32.43
2019-03-24T15:18:08.741Z,32.03
2019-03-24T15:20:38.032Z,32.47
2019-03-24T15:23:07.342Z,31.07
2019-03-24T15:25:36.635Z,29.00
2019-03-24T15:28:06.168Z,32.60
2019-03-24T15:30:35.447Z,32.00
2019-03-24T15:33:04.899Z,35.27
2019-03-24T15:35:34.247Z,30.93
2019-03-24T15:38:08.409Z,31.67
2019-03-24T15:40:34.542Z,31.67
2019-03-24T15:43:03.914Z,31.83
2019-03-24T15:45:33.224Z,28.67
2019-03-24T15:48:02.552Z,31.73
2019-03-24T15:50:31.844Z,27.67
2019-03-24T15:53:01.155Z,32.40
2019-03-24T15:55:30.442Z,27.60
2019-03-24T15:57:59.814Z,32.67
2019-03-24T16:00:40.394Z,29.90
2019-03-24T16:03:09.788Z,27.47
2019-03-24T16:05:40.138Z,27.57
2019-03-24T16:08:09.551Z,27.27
2019-03-24T16:10:39.836Z,27.27
2019-03-24T16:13:09.203Z,25.77
2019-03-24T16:15:38.591Z,24.53
2019-03-24T16:18:08.890Z,26.17
2019-03-24T16:20:38.208Z,27.77
2019-03-24T16:23:07.550Z,22.43
2019-03-24T16:25:36.874Z,21.97
2019-03-24T16:28:06.241Z,21.57
2019-03-24T16:30:35.616Z,21.73
2019-03-24T16:33:05.038Z,21.50
2019-03-24T16:35:34.349Z,22.43
2019-03-24T16:38:03.626Z,20.43
2019-03-24T16:40:33.154Z,24.10
2019-03-24T16:43:02.459Z,22.50
2019-03-24T16:45:31.798Z,23.33
2019-03-24T16:48:01.069Z,22.23
2019-03-24T16:50:30.458Z,20.37
2019-03-24T16:52:59.752Z,18.73
2019-03-24T16:55:29.065Z,21.80
2019-03-24T16:57:58.392Z,17.73
2019-03-24T17:00:27.762Z,24.03
2019-03-24T17:02:57.047Z,17.20
2019-03-24T17:05:26.355Z,21.93
2019-03-24T17:07:55.642Z,16.00
2019-03-24T17:10:24.950Z,17.57
2019-03-24T17:12:54.238Z,15.03
2019-03-24T17:15:23.596Z,18.77
2019-03-24T17:17:52.884Z,15.03
2019-03-24T17:20:22.191Z,13.90
2019-03-24T17:22:51.551Z,15.97
2019-03-24T17:25:20.864Z,16.20
2019-03-24T17:27:50.150Z,17.03
2019-03-24T17:30:19.730Z,15.67
2019-03-24T17:32:49.018Z,18.43
2019-03-24T17:35:18.322Z,15.60
2019-03-24T17:37:47.611Z,15.67
2019-03-24T17:40:17.280Z,14.93
2019-03-24T17:42:46.547Z,15.03
2019-03-24T17:45:16.579Z,15.57
2019-03-24T17:47:46.945Z,13.70
2019-03-24T17:50:16.584Z,14.30
2019-03-24T17:52:45.951Z,14.53
2019-03-24T17:55:15.332Z,13.47
2019-03-24T17:57:44.641Z,12.73
2019-03-24T18:00:18.291Z,14.80
2019-03-24T18:02:47.655Z,16.77
2019-03-24T18:05:17.179Z,16.37
2019-03-24T18:07:46.579Z,14.10
2019-03-24T18:10:15.886Z,15.43
2019-03-24T18:12:45.174Z,13.57
2019-03-24T18:15:14.824Z,14.00
2019-03-24T18:17:44.186Z,12.90
2019-03-24T18:20:16.560Z,14.77
2019-03-24T18:22:45.919Z,17.07
2019-03-24T18:25:15.278Z,15.77
2019-03-24T18:27:44.570Z,12.70
2019-03-24T18:30:14.455Z,15.07
2019-03-24T18:32:43.778Z,13.63
2019-03-24T18:35:13.291Z,15.23
2019-03-24T18:37:42.571Z,14.60
2019-03-24T18:40:12.226Z,15.90
2019-03-24T18:42:43.286Z,16.77
2019-03-24T18:45:15.991Z,20.70
2019-03-24T18:47:45.274Z,14.30
2019-03-24T18:50:15.214Z,21.93
2019-03-24T18:52:44.502Z,18.63
2019-03-24T18:55:14.238Z,20.37
2019-03-24T18:57:43.515Z,19.73
2019-03-24T19:00:14.563Z,17.97
2019-03-24T19:02:43.863Z,17.37
2019-03-24T19:05:13.377Z,13.63
2019-03-24T19:07:42.654Z,20.87
2019-03-24T19:10:13.572Z,18.63
2019-03-24T19:12:42.997Z,15.90
2019-03-24T19:15:14.398Z,14.63
2019-03-24T19:17:43.752Z,17.13
2019-03-24T19:20:13.402Z,15.77
2019-03-24T19:22:42.827Z,14.87
2019-03-24T19:25:12.283Z,15.80
2019-03-24T19:27:41.730Z,13.43
2019-03-24T19:30:15.915Z,21.00
2019-03-24T19:32:45.334Z,16.10
2019-03-24T19:35:14.719Z,19.57
2019-03-24T19:37:45.836Z,17.60
2019-03-24T19:40:29.402Z,21.27
2019-03-24T19:42:58.684Z,18.93
2019-03-24T19:45:27.994Z,20.13
2019-03-24T19:47:57.510Z,23.60
2019-03-24T19:50:27.047Z,21.53
2019-03-24T19:52:56.369Z,25.47
2019-03-24T19:55:25.651Z,27.67
2019-03-24T19:57:54.949Z,26.37
2019-03-24T20:00:24.227Z,25.23
2019-03-24T20:02:53.617Z,25.03
2019-03-24T20:05:22.962Z,27.87
2019-03-24T20:07:52.341Z,25.73
2019-03-24T20:10:21.619Z,25.03
2019-03-24T20:12:50.917Z,27.43
2019-03-24T20:15:20.266Z,27.90
2019-03-24T20:17:49.739Z,28.80
2019-03-24T20:20:19.094Z,26.67
2019-03-24T20:22:56.534Z,30.93
2019-03-24T20:25:19.365Z,26.57
2019-03-24T20:27:48.665Z,26.13
2019-03-24T20:30:18.075Z,28.23
2019-03-24T20:32:47.450Z,26.90
2019-03-24T20:35:16.727Z,23.90
2019-03-24T20:37:47.142Z,25.17
2019-03-24T20:40:17.002Z,24.83
2019-03-24T20:42:46.303Z,27.53
2019-03-24T20:45:15.711Z,22.33
2019-03-24T20:47:45.013Z,23.57
2019-03-24T20:50:14.771Z,21.37
2019-03-24T20:52:44.078Z,21.90
2019-03-24T20:55:13.486Z,15.53
2019-03-24T20:57:42.926Z,18.50
2019-03-24T21:00:13.354Z,16.17
2019-03-24T21:02:42.650Z,15.57
2019-03-24T21:05:11.995Z,14.53
2019-03-24T21:07:41.302Z,13.53
2019-03-24T21:10:10.814Z,12.97
2019-03-24T21:12:40.187Z,12.50
2019-03-24T21:15:11.577Z,12.83
2019-03-24T21:17:41.094Z,14.80
2019-03-24T21:20:10.610Z,13.63
2019-03-24T21:22:39.982Z,12.90
2019-03-24T21:25:09.619Z,10.37
2019-03-24T21:27:38.902Z,13.63
2019-03-24T21:30:20.586Z,14.00
2019-03-24T21:32:51.514Z,12.20
2019-03-24T21:35:21.005Z,15.43
2019-03-24T21:37:50.351Z,14.07
2019-03-24T21:40:19.648Z,11.67
2019-03-24T21:42:48.917Z,12.47
2019-03-24T21:45:18.218Z,15.43
2019-03-24T21:47:47.495Z,14.40
2019-03-24T21:50:16.802Z,12.93
2019-03-24T21:52:46.070Z,15.03
2019-03-24T21:55:15.362Z,16.47
2019-03-24T21:57:44.654Z,16.20
2019-03-24T22:00:15.694Z,16.93
2019-03-24T22:02:45.265Z,16.00
2019-03-24T22:05:14.537Z,12.60
2019-03-24T22:07:43.830Z,12.67
2019-03-24T22:10:13.283Z,13.43
2019-03-24T22:12:42.549Z,11.07
2019-03-24T22:15:12.091Z,11.77
2019-03-24T22:17:41.375Z,13.17
2019-03-24T22:20:10.768Z,11.90
2019-03-24T22:22:41.053Z,15.20
2019-03-24T22:25:10.623Z,16.03
2019-03-24T22:27:39.895Z,13.63
2019-03-24T22:30:09.543Z,13.40
2019-03-24T22:32:38.857Z,13.83
2019-03-24T22:35:08.198Z,14.87
2019-03-24T22:37:37.550Z,10.47
2019-03-24T22:40:09.648Z,11.33
2019-03-24T22:42:38.999Z,14.53
2019-03-24T22:45:08.418Z,12.67
2019-03-24T22:47:37.693Z,13.93
2019-03-24T22:50:09.913Z,11.33
2019-03-24T22:52:39.269Z,13.27
2019-03-24T22:55:09.997Z,14.60
2019-03-24T22:57:39.290Z,11.60
2019-03-24T23:00:15.790Z,13.13
2019-03-24T23:02:46.699Z,11.03
2019-03-24T23:05:16.036Z,13.67
2019-03-24T23:07:45.382Z,13.47
2019-03-24T23:10:14.722Z,11.33
2019-03-24T23:12:44.002Z,10.53
2019-03-24T23:15:13.298Z,14.77
2019-03-24T23:17:42.667Z,13.70
2019-03-24T23:20:12.475Z,12.07
2019-03-24T23:22:41.767Z,14.17
2019-03-24T23:25:11.281Z,12.43
2019-03-24T23:27:40.553Z,17.50
2019-03-24T23:30:10.454Z,19.10
2019-03-24T23:32:39.725Z,12.37
2019-03-24T23:35:09.096Z,14.07
2019-03-24T23:37:38.361Z,14.70
2019-03-24T23:40:07.898Z,12.80
2019-03-24T23:42:37.173Z,13.20
2019-03-24T23:45:08.146Z,16.73
2019-03-24T23:47:37.486Z,13.47
2019-03-24T23:50:07.025Z,15.80
2019-03-24T23:52:36.291Z,13.50
2019-03-24T23:55:05.961Z,17.93
2019-03-24T23:57:35.234Z,12.33
